sensor_id;sensor_type;location;lat;lon;timestamp;pressure;altitude;pressure_sealevel;temperature;humidity
57791;BME280;43621;51.798;21.588;2023-02-28T00:00:24;101346.07;;;-2.60;51.51
57791;BME280;43621;51.798;21.588;2023-02-28T00:04:46;101344.75;;;-2.63;51.66
57791;BME280;43621;51.798;21.588;2023-02-28T00:08:54;101344.23;;;-2.62;52.02
57791;BME280;43621;51.798;21.588;2023-02-28T00:13:03;101346.94;;;-2.60;51.94
57791;BME280;43621;51.798;21.588;2023-02-28T00:17:06;101346.83;;;-2.65;51.92
57791;BME280;43621;51.798;21.588;2023-02-28T00:21:08;101346.66;;;-2.65;52.16
57791;BME280;43621;51.798;21.588;2023-02-28T00:25:12;101344.98;;;-2.67;52.17
57791;BME280;43621;51.798;21.588;2023-02-28T00:29:14;101349.52;;;-2.73;52.16
57791;BME280;43621;51.798;21.588;2023-02-28T00:33:17;101347.36;;;-2.77;52.14
57791;BME280;43621;51.798;21.588;2023-02-28T00:37:18;101344.35;;;-2.82;52.22
57791;BME280;43621;51.798;21.588;2023-02-28T00:41:20;101345.80;;;-2.88;52.45
57791;BME280;43621;51.798;21.588;2023-02-28T00:45:22;101342.59;;;-2.90;52.57
57791;BME280;43621;51.798;21.588;2023-02-28T00:49:25;101346.20;;;-2.91;52.72
57791;BME280;43621;51.798;21.588;2023-02-28T00:53:28;101345.23;;;-2.96;52.74
57791;BME280;43621;51.798;21.588;2023-02-28T00:57:30;101341.02;;;-3.00;52.92
57791;BME280;43621;51.798;21.588;2023-02-28T01:01:32;101345.48;;;-3.01;52.86
57791;BME280;43621;51.798;21.588;2023-02-28T01:05:35;101342.97;;;-3.05;52.93
57791;BME280;43621;51.798;21.588;2023-02-28T01:09:36;101355.49;;;-3.09;53.11
57791;BME280;43621;51.798;21.588;2023-02-28T01:13:38;101349.91;;;-3.13;53.19
57791;BME280;43621;51.798;21.588;2023-02-28T01:17:40;101354.04;;;-3.16;53.34
57791;BME280;43621;51.798;21.588;2023-02-28T01:21:42;101354.05;;;-3.16;53.42
57791;BME280;43621;51.798;21.588;2023-02-28T01:25:44;101355.30;;;-3.19;53.44
57791;BME280;43621;51.798;21.588;2023-02-28T01:29:46;101355.70;;;-3.25;53.56
57791;BME280;43621;51.798;21.588;2023-02-28T01:33:49;101354.91;;;-3.30;53.63
57791;BME280;43621;51.798;21.588;2023-02-28T01:37:53;101356.69;;;-3.35;53.68
57791;BME280;43621;51.798;21.588;2023-02-28T01:41:55;101352.80;;;-3.39;53.83
57791;BME280;43621;51.798;21.588;2023-02-28T01:45:58;101351.29;;;-3.40;54.05
57791;BME280;43621;51.798;21.588;2023-02-28T01:50:02;101353.54;;;-3.43;54.07
57791;BME280;43621;51.798;21.588;2023-02-28T01:54:11;101353.77;;;-3.47;54.14
57791;BME280;43621;51.798;21.588;2023-02-28T01:58:15;101356.18;;;-3.49;54.23
57791;BME280;43621;51.798;21.588;2023-02-28T02:02:19;101358.58;;;-3.50;54.29
57791;BME280;43621;51.798;21.588;2023-02-28T02:06:23;101357.23;;;-3.51;54.46
57791;BME280;43621;51.798;21.588;2023-02-28T02:10:31;101356.41;;;-3.55;54.53
57791;BME280;43621;51.798;21.588;2023-02-28T02:15:03;101356.61;;;-3.58;54.52
57791;BME280;43621;51.798;21.588;2023-02-28T02:29:00;101360.63;;;-3.50;54.78
57791;BME280;43621;51.798;21.588;2023-02-28T02:37:15;101364.36;;;-3.48;54.82
57791;BME280;43621;51.798;21.588;2023-02-28T02:41:56;101362.13;;;-3.47;54.97
57791;BME280;43621;51.798;21.588;2023-02-28T02:45:56;101358.16;;;-3.44;55.10
57791;BME280;43621;51.798;21.588;2023-02-28T02:50:04;101361.38;;;-3.42;54.98
57791;BME280;43621;51.798;21.588;2023-02-28T02:54:08;101363.95;;;-3.42;54.97
57791;BME280;43621;51.798;21.588;2023-02-28T02:58:14;101369.40;;;-3.42;54.94
57791;BME280;43621;51.798;21.588;2023-02-28T03:02:18;101366.90;;;-3.47;54.91
57791;BME280;43621;51.798;21.588;2023-02-28T03:06:21;101369.16;;;-3.51;55.01
57791;BME280;43621;51.798;21.588;2023-02-28T03:23:31;101376.06;;;-3.72;55.19
57791;BME280;43621;51.798;21.588;2023-02-28T03:27:48;101381.25;;;-3.78;55.30
57791;BME280;43621;51.798;21.588;2023-02-28T03:31:59;101386.73;;;-3.81;55.43
57791;BME280;43621;51.798;21.588;2023-02-28T03:36:17;101388.96;;;-3.81;55.70
57791;BME280;43621;51.798;21.588;2023-02-28T03:40:24;101388.92;;;-3.79;55.79
57791;BME280;43621;51.798;21.588;2023-02-28T03:44:32;101392.00;;;-3.79;55.71
57791;BME280;43621;51.798;21.588;2023-02-28T03:48:43;101391.19;;;-3.83;55.73
57791;BME280;43621;51.798;21.588;2023-02-28T03:52:50;101390.20;;;-3.86;55.72
57791;BME280;43621;51.798;21.588;2023-02-28T04:01:39;101396.70;;;-3.89;56.06
57791;BME280;43621;51.798;21.588;2023-02-28T04:05:55;101396.17;;;-3.88;55.99
57791;BME280;43621;51.798;21.588;2023-02-28T04:09:58;101397.49;;;-3.83;56.01
57791;BME280;43621;51.798;21.588;2023-02-28T04:14:02;101394.02;;;-3.77;56.24
57791;BME280;43621;51.798;21.588;2023-02-28T04:18:05;101396.69;;;-3.71;56.34
57791;BME280;43621;51.798;21.588;2023-02-28T04:22:08;101397.53;;;-3.69;56.32
57791;BME280;43621;51.798;21.588;2023-02-28T04:26:10;101396.84;;;-3.68;56.49
57791;BME280;43621;51.798;21.588;2023-02-28T04:30:12;101400.60;;;-3.70;56.65
57791;BME280;43621;51.798;21.588;2023-02-28T04:34:15;101400.65;;;-3.73;56.73
57791;BME280;43621;51.798;21.588;2023-02-28T04:38:16;101401.90;;;-3.80;56.77
57791;BME280;43621;51.798;21.588;2023-02-28T04:42:18;101401.95;;;-3.85;56.82
57791;BME280;43621;51.798;21.588;2023-02-28T04:46:20;101407.27;;;-3.88;56.95
57791;BME280;43621;51.798;21.588;2023-02-28T04:50:22;101406.77;;;-3.92;57.05
57791;BME280;43621;51.798;21.588;2023-02-28T04:54:24;101409.36;;;-3.96;57.01
57791;BME280;43621;51.798;21.588;2023-02-28T04:58:26;101410.61;;;-4.03;56.94
57791;BME280;43621;51.798;21.588;2023-02-28T05:02:29;101410.83;;;-4.08;57.04
57791;BME280;43621;51.798;21.588;2023-02-28T05:06:32;101417.04;;;-4.15;57.10
57791;BME280;43621;51.798;21.588;2023-02-28T05:10:35;101422.83;;;-4.15;57.32
57791;BME280;43621;51.798;21.588;2023-02-28T05:14:37;101426.07;;;-4.15;57.17
57791;BME280;43621;51.798;21.588;2023-02-28T05:18:39;101427.98;;;-4.20;57.16
57791;BME280;43621;51.798;21.588;2023-02-28T05:22:42;101425.80;;;-4.25;57.12
57791;BME280;43621;51.798;21.588;2023-02-28T05:26:44;101427.00;;;-4.26;57.30
57791;BME280;43621;51.798;21.588;2023-02-28T05:30:46;101434.50;;;-4.26;57.28
57791;BME280;43621;51.798;21.588;2023-02-28T05:34:48;101433.63;;;-4.21;57.48
57791;BME280;43621;51.798;21.588;2023-02-28T05:38:51;101434.23;;;-4.13;57.46
57791;BME280;43621;51.798;21.588;2023-02-28T05:42:53;101431.94;;;-4.03;57.54
57791;BME280;43621;51.798;21.588;2023-02-28T05:46:54;101429.46;;;-3.91;57.49
57791;BME280;43621;51.798;21.588;2023-02-28T05:50:57;101432.39;;;-3.43;58.00
57791;BME280;43621;51.798;21.588;2023-02-28T05:54:59;101431.14;;;-2.23;58.77
57791;BME280;43621;51.798;21.588;2023-02-28T05:59:01;101434.11;;;-0.87;58.96
57791;BME280;43621;51.798;21.588;2023-02-28T06:03:03;101434.34;;;0.79;58.79
57791;BME280;43621;51.798;21.588;2023-02-28T06:07:05;101434.77;;;2.08;57.42
57791;BME280;43621;51.798;21.588;2023-02-28T06:11:07;101441.95;;;3.65;56.81
57791;BME280;43621;51.798;21.588;2023-02-28T06:15:14;101437.58;;;5.47;55.63
57791;BME280;43621;51.798;21.588;2023-02-28T06:19:16;101431.19;;;7.22;54.15
57791;BME280;43621;51.798;21.588;2023-02-28T06:23:18;101433.50;;;8.79;52.80
57791;BME280;43621;51.798;21.588;2023-02-28T06:27:20;101435.42;;;9.95;49.23
57791;BME280;43621;51.798;21.588;2023-02-28T06:31:24;101434.83;;;10.41;47.62
57791;BME280;43621;51.798;21.588;2023-02-28T06:35:27;101436.39;;;10.28;46.26
57791;BME280;43621;51.798;21.588;2023-02-28T06:39:30;101442.96;;;9.81;45.45
57791;BME280;43621;51.798;21.588;2023-02-28T06:43:35;101442.27;;;9.46;45.22
57791;BME280;43621;51.798;21.588;2023-02-28T06:47:39;101438.77;;;10.15;45.66
57791;BME280;43621;51.798;21.588;2023-02-28T06:51:44;101438.40;;;11.66;45.39
57791;BME280;43621;51.798;21.588;2023-02-28T06:55:50;101441.27;;;13.41;44.29
57791;BME280;43621;51.798;21.588;2023-02-28T06:59:52;101432.48;;;15.29;42.75
57791;BME280;43621;51.798;21.588;2023-02-28T07:03:54;101429.03;;;17.45;40.43
57791;BME280;43621;51.798;21.588;2023-02-28T07:07:56;101425.44;;;19.48;37.47
57791;BME280;43621;51.798;21.588;2023-02-28T07:11:58;101423.01;;;21.48;35.36
57791;BME280;43621;51.798;21.588;2023-02-28T07:16:04;101422.92;;;23.74;33.41
57791;BME280;43621;51.798;21.588;2023-02-28T07:20:07;101427.50;;;25.97;31.44
57791;BME280;43621;51.798;21.588;2023-02-28T07:24:09;101422.09;;;28.30;29.85
57791;BME280;43621;51.798;21.588;2023-02-28T07:28:11;101426.14;;;30.32;26.76
57791;BME280;43621;51.798;21.588;2023-02-28T07:32:13;101429.58;;;31.23;22.28
57791;BME280;43621;51.798;21.588;2023-02-28T07:36:16;101427.39;;;31.45;21.14
57791;BME280;43621;51.798;21.588;2023-02-28T07:40:20;101425.45;;;32.16;20.19
57791;BME280;43621;51.798;21.588;2023-02-28T07:44:22;101426.88;;;32.56;18.61
57791;BME280;43621;51.798;21.588;2023-02-28T07:48:24;101424.23;;;33.13;17.55
57791;BME280;43621;51.798;21.588;2023-02-28T07:52:26;101422.23;;;33.03;16.14
57791;BME280;43621;51.798;21.588;2023-02-28T07:56:28;101423.63;;;33.33;16.02
57791;BME280;43621;51.798;21.588;2023-02-28T08:00:30;101421.09;;;34.52;16.08
57791;BME280;43621;51.798;21.588;2023-02-28T08:04:33;101417.39;;;36.20;16.15
57791;BME280;43621;51.798;21.588;2023-02-28T08:08:35;101422.98;;;37.67;15.18
57791;BME280;43621;51.798;21.588;2023-02-28T08:12:37;101423.92;;;38.78;14.68
57791;BME280;43621;51.798;21.588;2023-02-28T08:16:38;101425.92;;;40.31;14.68
57791;BME280;43621;51.798;21.588;2023-02-28T08:20:40;101425.05;;;41.20;13.09
57791;BME280;43621;51.798;21.588;2023-02-28T08:24:43;101424.92;;;41.94;13.15
57791;BME280;43621;51.798;21.588;2023-02-28T08:28:45;101427.86;;;42.62;11.75
57791;BME280;43621;51.798;21.588;2023-02-28T08:32:47;101428.63;;;42.82;11.83
57791;BME280;43621;51.798;21.588;2023-02-28T08:36:49;101424.15;;;43.73;11.87
57791;BME280;43621;51.798;21.588;2023-02-28T08:40:58;101428.06;;;44.75;11.28
57791;BME280;43621;51.798;21.588;2023-02-28T08:45:00;101426.04;;;45.12;10.56
57791;BME280;43621;51.798;21.588;2023-02-28T08:49:02;101422.88;;;45.02;9.52
57791;BME280;43621;51.798;21.588;2023-02-28T08:53:04;101421.92;;;44.57;9.45
57791;BME280;43621;51.798;21.588;2023-02-28T08:57:06;101421.82;;;44.39;9.44
57791;BME280;43621;51.798;21.588;2023-02-28T09:01:13;101426.44;;;44.89;9.48
57791;BME280;43621;51.798;21.588;2023-02-28T09:05:15;101424.27;;;45.44;9.01
57791;BME280;43621;51.798;21.588;2023-02-28T09:09:16;101426.98;;;45.77;9.36
57791;BME280;43621;51.798;21.588;2023-02-28T09:13:18;101429.64;;;46.06;8.79
57791;BME280;43621;51.798;21.588;2023-02-28T09:17:20;101426.75;;;45.47;8.08
57791;BME280;43621;51.798;21.588;2023-02-28T09:21:22;101428.36;;;45.07;8.47
57791;BME280;43621;51.798;21.588;2023-02-28T09:25:23;101430.16;;;45.14;8.59
57791;BME280;43621;51.798;21.588;2023-02-28T09:29:25;101432.24;;;45.30;8.79
57791;BME280;43621;51.798;21.588;2023-02-28T09:33:27;101430.77;;;45.70;8.93
57791;BME280;43621;51.798;21.588;2023-02-28T09:37:29;101428.24;;;46.06;8.46
57791;BME280;43621;51.798;21.588;2023-02-28T09:41:40;101428.42;;;45.93;8.17
57791;BME280;43621;51.798;21.588;2023-02-28T09:45:54;101429.56;;;45.22;8.15
57791;BME280;43621;51.798;21.588;2023-02-28T09:50:11;101429.15;;;44.80;8.23
57791;BME280;43621;51.798;21.588;2023-02-28T09:54:22;101434.71;;;44.65;8.44
57791;BME280;43621;51.798;21.588;2023-02-28T09:58:32;101435.74;;;44.51;8.45
57791;BME280;43621;51.798;21.588;2023-02-28T10:06:50;101426.69;;;44.04;8.07
57791;BME280;43621;51.798;21.588;2023-02-28T10:10:58;101424.02;;;43.75;8.21
57791;BME280;43621;51.798;21.588;2023-02-28T10:15:03;101424.59;;;43.61;8.19
57791;BME280;43621;51.798;21.588;2023-02-28T10:23:31;101423.84;;;43.16;8.06
57791;BME280;43621;51.798;21.588;2023-02-28T10:27:34;101427.15;;;43.02;8.20
57791;BME280;43621;51.798;21.588;2023-02-28T10:31:35;101430.88;;;42.55;7.91
57791;BME280;43621;51.798;21.588;2023-02-28T10:35:37;101426.90;;;40.08;8.13
57791;BME280;43621;51.798;21.588;2023-02-28T10:39:45;101427.02;;;40.12;8.72
57791;BME280;43621;51.798;21.588;2023-02-28T10:43:50;101422.11;;;40.44;8.26
57791;BME280;43621;51.798;21.588;2023-02-28T10:47:57;101415.61;;;39.85;7.94
57791;BME280;43621;51.798;21.588;2023-02-28T10:52:00;101418.92;;;39.61;8.24
57791;BME280;43621;51.798;21.588;2023-02-28T11:00:23;101419.60;;;39.86;8.46
57791;BME280;43621;51.798;21.588;2023-02-28T11:08:34;101419.02;;;38.78;8.74
57791;BME280;43621;51.798;21.588;2023-02-28T11:12:39;101414.02;;;38.16;8.78
57791;BME280;43621;51.798;21.588;2023-02-28T11:16:44;101407.47;;;37.43;8.74
57791;BME280;43621;51.798;21.588;2023-02-28T11:20:54;101402.54;;;35.75;8.80
57791;BME280;43621;51.798;21.588;2023-02-28T11:25:02;101395.34;;;33.54;9.86
57791;BME280;43621;51.798;21.588;2023-02-28T11:33:28;101378.13;;;27.82;11.13
57791;BME280;43621;51.798;21.588;2023-02-28T11:37:31;101372.73;;;25.24;11.85
57791;BME280;43621;51.798;21.588;2023-02-28T11:41:45;101369.46;;;22.54;12.57
57791;BME280;43621;51.798;21.588;2023-02-28T11:50:15;101367.00;;;19.24;14.45
57791;BME280;43621;51.798;21.588;2023-02-28T11:54:57;101360.23;;;18.02;15.16
57791;BME280;43621;51.798;21.588;2023-02-28T12:16:24;101334.08;;;14.06;18.35
57791;BME280;43621;51.798;21.588;2023-02-28T12:29:58;101325.73;;;12.61;19.60
57791;BME280;43621;51.798;21.588;2023-02-28T12:34:04;101321.32;;;12.39;20.12
57791;BME280;43621;51.798;21.588;2023-02-28T12:38:12;101316.95;;;12.23;20.40
57791;BME280;43621;51.798;21.588;2023-02-28T12:42:37;101315.23;;;12.30;20.71
57791;BME280;43621;51.798;21.588;2023-02-28T12:46:51;101312.05;;;12.34;20.81
57791;BME280;43621;51.798;21.588;2023-02-28T12:50:56;101306.95;;;12.16;20.91
57791;BME280;43621;51.798;21.588;2023-02-28T13:03:42;101292.83;;;11.79;21.49
57791;BME280;43621;51.798;21.588;2023-02-28T13:12:01;101293.74;;;11.50;22.21
57791;BME280;43621;51.798;21.588;2023-02-28T13:16:06;101295.67;;;11.55;22.34
57791;BME280;43621;51.798;21.588;2023-02-28T13:20:24;101293.34;;;11.51;22.49
57791;BME280;43621;51.798;21.588;2023-02-28T13:24:44;101292.79;;;11.44;22.58
57791;BME280;43621;51.798;21.588;2023-02-28T13:45:31;101273.38;;;10.85;23.61
57791;BME280;43621;51.798;21.588;2023-02-28T13:49:40;101264.48;;;10.82;23.53
57791;BME280;43621;51.798;21.588;2023-02-28T13:54:04;101260.48;;;10.68;23.70
57791;BME280;43621;51.798;21.588;2023-02-28T14:06:38;101250.19;;;10.15;24.14
57791;BME280;43621;51.798;21.588;2023-02-28T14:10:44;101244.33;;;9.83;24.30
57791;BME280;43621;51.798;21.588;2023-02-28T14:18:58;101244.15;;;9.32;24.99
57791;BME280;43621;51.798;21.588;2023-02-28T14:27:40;101235.27;;;9.18;25.56
57791;BME280;43621;51.798;21.588;2023-02-28T14:36:32;101226.30;;;8.98;25.73
57791;BME280;43621;51.798;21.588;2023-02-28T14:40:38;101224.23;;;8.82;25.95
57791;BME280;43621;51.798;21.588;2023-02-28T14:44:40;101224.05;;;8.69;26.29
57791;BME280;43621;51.798;21.588;2023-02-28T14:48:45;101221.45;;;8.60;26.51
57791;BME280;43621;51.798;21.588;2023-02-28T14:52:51;101224.95;;;8.60;26.70
57791;BME280;43621;51.798;21.588;2023-02-28T14:56:54;101220.54;;;8.55;26.86
57791;BME280;43621;51.798;21.588;2023-02-28T15:00:59;101215.52;;;8.47;26.93
57791;BME280;43621;51.798;21.588;2023-02-28T15:05:22;101212.13;;;8.40;27.11
57791;BME280;43621;51.798;21.588;2023-02-28T15:09:25;101209.89;;;8.28;27.25
57791;BME280;43621;51.798;21.588;2023-02-28T15:13:40;101210.87;;;8.12;27.35
57791;BME280;43621;51.798;21.588;2023-02-28T15:17:50;101211.89;;;7.87;27.52
57791;BME280;43621;51.798;21.588;2023-02-28T15:22:08;101211.05;;;7.60;27.70
57791;BME280;43621;51.798;21.588;2023-02-28T15:26:19;101205.23;;;7.32;27.90
57791;BME280;43621;51.798;21.588;2023-02-28T15:30:26;101204.06;;;6.98;28.22
57791;BME280;43621;51.798;21.588;2023-02-28T15:34:39;101208.48;;;6.63;28.53
57791;BME280;43621;51.798;21.588;2023-02-28T15:38:42;101210.72;;;6.28;28.73
57791;BME280;43621;51.798;21.588;2023-02-28T15:43:05;101214.83;;;5.93;29.09
57791;BME280;43621;51.798;21.588;2023-02-28T15:47:17;101215.61;;;5.58;29.52
57791;BME280;43621;51.798;21.588;2023-02-28T15:51:33;101219.09;;;5.30;29.85
57791;BME280;43621;51.798;21.588;2023-02-28T15:55:36;101212.95;;;5.03;30.19
57791;BME280;43621;51.798;21.588;2023-02-28T15:59:38;101215.23;;;4.78;30.53
57791;BME280;43621;51.798;21.588;2023-02-28T16:03:45;101214.86;;;4.56;30.80
57791;BME280;43621;51.798;21.588;2023-02-28T16:07:47;101214.52;;;4.30;31.05
57791;BME280;43621;51.798;21.588;2023-02-28T16:11:53;101221.98;;;4.03;31.41
57791;BME280;43621;51.798;21.588;2023-02-28T16:15:56;101230.21;;;3.76;31.69
57791;BME280;43621;51.798;21.588;2023-02-28T16:19:58;101232.83;;;3.47;32.09
57791;BME280;43621;51.798;21.588;2023-02-28T16:24:00;101233.27;;;3.20;32.51
57791;BME280;43621;51.798;21.588;2023-02-28T16:28:02;101233.16;;;2.93;32.78
57791;BME280;43621;51.798;21.588;2023-02-28T16:32:05;101240.42;;;2.71;33.19
57791;BME280;43621;51.798;21.588;2023-02-28T16:36:12;101240.38;;;2.53;33.52
57791;BME280;43621;51.798;21.588;2023-02-28T16:40:21;101240.81;;;2.33;33.91
57791;BME280;43621;51.798;21.588;2023-02-28T16:44:32;101245.05;;;2.11;34.15
57791;BME280;43621;51.798;21.588;2023-02-28T16:48:34;101245.92;;;1.87;34.53
57791;BME280;43621;51.798;21.588;2023-02-28T16:52:36;101246.42;;;1.73;35.01
57791;BME280;43621;51.798;21.588;2023-02-28T16:56:43;101241.99;;;1.61;35.28
57791;BME280;43621;51.798;21.588;2023-02-28T17:00:46;101241.13;;;1.51;35.48
57791;BME280;43621;51.798;21.588;2023-02-28T17:04:48;101242.68;;;1.41;35.77
57791;BME280;43621;51.798;21.588;2023-02-28T17:08:51;101248.61;;;1.34;36.16
57791;BME280;43621;51.798;21.588;2023-02-28T17:12:53;101253.00;;;1.25;36.36
57791;BME280;43621;51.798;21.588;2023-02-28T17:16:54;101250.45;;;1.13;36.53
57791;BME280;43621;51.798;21.588;2023-02-28T17:20:57;101243.77;;;1.02;36.74
57791;BME280;43621;51.798;21.588;2023-02-28T17:24:59;101243.61;;;0.96;37.26
57791;BME280;43621;51.798;21.588;2023-02-28T17:29:01;101243.17;;;0.88;37.46
57791;BME280;43621;51.798;21.588;2023-02-28T17:33:03;101241.85;;;0.87;37.65
57791;BME280;43621;51.798;21.588;2023-02-28T17:37:05;101239.77;;;0.87;37.93
57791;BME280;43621;51.798;21.588;2023-02-28T17:41:09;101247.14;;;0.82;38.19
57791;BME280;43621;51.798;21.588;2023-02-28T17:45:13;101257.85;;;0.75;38.28
57791;BME280;43621;51.798;21.588;2023-02-28T17:49:16;101258.64;;;0.72;38.50
57791;BME280;43621;51.798;21.588;2023-02-28T17:53:18;101269.25;;;0.68;38.72
57791;BME280;43621;51.798;21.588;2023-02-28T17:57:20;101268.27;;;0.60;38.85
57791;BME280;43621;51.798;21.588;2023-02-28T18:01:23;101267.17;;;0.51;38.94
57791;BME280;43621;51.798;21.588;2023-02-28T18:05:27;101267.28;;;0.41;39.19
57791;BME280;43621;51.798;21.588;2023-02-28T18:09:29;101265.80;;;0.33;39.40
57791;BME280;43621;51.798;21.588;2023-02-28T18:13:31;101262.02;;;0.33;39.64
57791;BME280;43621;51.798;21.588;2023-02-28T18:17:33;101266.23;;;0.30;39.77
57791;BME280;43621;51.798;21.588;2023-02-28T18:21:35;101266.11;;;0.28;40.24
57791;BME280;43621;51.798;21.588;2023-02-28T18:25:39;101251.98;;;0.24;40.33
57791;BME280;43621;51.798;21.588;2023-02-28T18:29:41;101240.86;;;0.28;40.52
57791;BME280;43621;51.798;21.588;2023-02-28T18:33:47;101234.99;;;0.29;40.74
57791;BME280;43621;51.798;21.588;2023-02-28T18:37:49;101246.27;;;0.26;40.84
57791;BME280;43621;51.798;21.588;2023-02-28T18:41:51;101249.02;;;0.20;40.80
57791;BME280;43621;51.798;21.588;2023-02-28T18:45:54;101246.91;;;0.09;40.79
57791;BME280;43621;51.798;21.588;2023-02-28T18:49:56;101243.39;;;-0.01;40.98
57791;BME280;43621;51.798;21.588;2023-02-28T18:53:58;101242.73;;;-0.09;41.37
57791;BME280;43621;51.798;21.588;2023-02-28T18:58:00;101239.02;;;-0.11;41.46
57791;BME280;43621;51.798;21.588;2023-02-28T19:02:02;101237.06;;;-0.15;41.49
57791;BME280;43621;51.798;21.588;2023-02-28T19:06:04;101235.49;;;-0.20;41.63
57791;BME280;43621;51.798;21.588;2023-02-28T19:10:08;101232.55;;;-0.19;42.00
57791;BME280;43621;51.798;21.588;2023-02-28T19:14:10;101228.79;;;-0.19;42.11
57791;BME280;43621;51.798;21.588;2023-02-28T19:18:12;101222.10;;;-0.26;42.15
57791;BME280;43621;51.798;21.588;2023-02-28T19:22:13;101216.64;;;-0.34;42.26
57791;BME280;43621;51.798;21.588;2023-02-28T19:26:21;101216.19;;;-0.42;42.48
57791;BME280;43621;51.798;21.588;2023-02-28T19:30:24;101212.84;;;-0.45;42.80
57791;BME280;43621;51.798;21.588;2023-02-28T19:34:26;101210.63;;;-0.46;42.92
57791;BME280;43621;51.798;21.588;2023-02-28T19:38:28;101211.86;;;-0.47;43.14
57791;BME280;43621;51.798;21.588;2023-02-28T19:42:30;101210.64;;;-0.47;43.29
57791;BME280;43621;51.798;21.588;2023-02-28T19:46:33;101223.34;;;-0.47;43.41
57791;BME280;43621;51.798;21.588;2023-02-28T19:50:35;101233.63;;;-0.47;43.52
57791;BME280;43621;51.798;21.588;2023-02-28T19:54:38;101236.06;;;-0.48;43.55
57791;BME280;43621;51.798;21.588;2023-02-28T19:58:40;101235.55;;;-0.48;43.67
57791;BME280;43621;51.798;21.588;2023-02-28T20:02:42;101234.77;;;-0.51;43.91
57791;BME280;43621;51.798;21.588;2023-02-28T20:06:44;101247.16;;;-0.53;44.01
57791;BME280;43621;51.798;21.588;2023-02-28T20:10:46;101249.81;;;-0.56;43.98
57791;BME280;43621;51.798;21.588;2023-02-28T20:14:48;101256.42;;;-0.59;44.09
57791;BME280;43621;51.798;21.588;2023-02-28T20:18:51;101253.00;;;-0.67;44.10
57791;BME280;43621;51.798;21.588;2023-02-28T20:22:53;101253.83;;;-0.72;44.20
57791;BME280;43621;51.798;21.588;2023-02-28T20:26:55;101251.48;;;-0.74;44.45
57791;BME280;43621;51.798;21.588;2023-02-28T20:30:58;101250.25;;;-0.73;44.60
57791;BME280;43621;51.798;21.588;2023-02-28T20:35:00;101242.86;;;-0.79;44.64
57791;BME280;43621;51.798;21.588;2023-02-28T20:39:03;101236.99;;;-0.85;44.75
57791;BME280;43621;51.798;21.588;2023-02-28T20:43:05;101237.31;;;-0.90;44.78
57791;BME280;43621;51.798;21.588;2023-02-28T20:47:07;101234.56;;;-0.98;45.06
57791;BME280;43621;51.798;21.588;2023-02-28T20:51:10;101230.02;;;-1.01;45.29
57791;BME280;43621;51.798;21.588;2023-02-28T20:55:12;101227.77;;;-1.00;45.54
57791;BME280;43621;51.798;21.588;2023-02-28T20:59:14;101227.36;;;-1.05;45.39
57791;BME280;43621;51.798;21.588;2023-02-28T21:03:16;101229.15;;;-1.15;45.40
57791;BME280;43621;51.798;21.588;2023-02-28T21:07:18;101224.64;;;-1.20;45.71
57791;BME280;43621;51.798;21.588;2023-02-28T21:11:22;101223.10;;;-1.20;45.85
57791;BME280;43621;51.798;21.588;2023-02-28T21:15:25;101218.68;;;-1.21;46.08
57791;BME280;43621;51.798;21.588;2023-02-28T21:19:27;101221.03;;;-1.19;46.40
57791;BME280;43621;51.798;21.588;2023-02-28T21:23:29;101222.83;;;-1.23;46.09
57791;BME280;43621;51.798;21.588;2023-02-28T21:27:31;101229.14;;;-1.31;46.20
57791;BME280;43621;51.798;21.588;2023-02-28T21:31:34;101228.44;;;-1.38;46.31
57791;BME280;43621;51.798;21.588;2023-02-28T21:35:36;101233.89;;;-1.44;46.41
57791;BME280;43621;51.798;21.588;2023-02-28T21:39:38;101234.18;;;-1.49;46.47
57791;BME280;43621;51.798;21.588;2023-02-28T21:43:40;101235.46;;;-1.53;46.73
57791;BME280;43621;51.798;21.588;2023-02-28T21:47:42;101232.05;;;-1.53;46.95
57791;BME280;43621;51.798;21.588;2023-02-28T21:51:45;101226.98;;;-1.49;47.28
57791;BME280;43621;51.798;21.588;2023-02-28T21:55:46;101222.31;;;-1.47;47.11
57791;BME280;43621;51.798;21.588;2023-02-28T21:59:48;101225.83;;;-1.50;47.18
57791;BME280;43621;51.798;21.588;2023-02-28T22:03:51;101227.34;;;-1.58;47.05
57791;BME280;43621;51.798;21.588;2023-02-28T22:07:53;101227.09;;;-1.62;47.52
57791;BME280;43621;51.798;21.588;2023-02-28T22:11:55;101223.16;;;-1.63;47.60
57791;BME280;43621;51.798;21.588;2023-02-28T22:16:06;101213.95;;;-1.64;47.60
57791;BME280;43621;51.798;21.588;2023-02-28T22:20:09;101217.16;;;-1.70;47.55
57791;BME280;43621;51.798;21.588;2023-02-28T22:24:13;101222.60;;;-1.76;47.73
57791;BME280;43621;51.798;21.588;2023-02-28T22:28:16;101221.20;;;-1.83;47.64
57791;BME280;43621;51.798;21.588;2023-02-28T22:32:18;101227.33;;;-1.97;47.61
57791;BME280;43621;51.798;21.588;2023-02-28T22:36:20;101232.83;;;-2.07;47.81
57791;BME280;43621;51.798;21.588;2023-02-28T22:40:22;101235.55;;;-2.16;47.82
57791;BME280;43621;51.798;21.588;2023-02-28T22:44:24;101236.95;;;-2.27;48.08
57791;BME280;43621;51.798;21.588;2023-02-28T22:48:26;101240.46;;;-2.32;48.37
57791;BME280;43621;51.798;21.588;2023-02-28T22:52:28;101234.02;;;-2.25;48.81
57791;BME280;43621;51.798;21.588;2023-02-28T22:56:30;101227.63;;;-2.22;48.80
57791;BME280;43621;51.798;21.588;2023-02-28T23:00:31;101227.47;;;-2.23;48.90
57791;BME280;43621;51.798;21.588;2023-02-28T23:04:33;101231.69;;;-2.19;49.12
57791;BME280;43621;51.798;21.588;2023-02-28T23:08:35;101222.75;;;-2.17;49.08
57791;BME280;43621;51.798;21.588;2023-02-28T23:12:38;101219.09;;;-2.14;49.18
57791;BME280;43621;51.798;21.588;2023-02-28T23:16:53;101219.14;;;-2.16;49.09
57791;BME280;43621;51.798;21.588;2023-02-28T23:20:55;101223.23;;;-2.25;48.94